createdAt,value
2023-04-20T00:00:25.461Z,6.90
2023-04-20T00:02:52.119Z,7.13
2023-04-20T00:05:18.876Z,6.23
2023-04-20T00:07:45.367Z,6.70
2023-04-20T00:10:11.883Z,7.10
2023-04-20T00:12:38.412Z,6.63
2023-04-20T00:15:05.466Z,7.70
2023-04-20T00:17:32.135Z,7.50
2023-04-20T00:19:58.658Z,7.37
2023-04-20T00:22:26.283Z,6.60
2023-04-20T00:24:52.719Z,7.13
2023-04-20T00:27:19.185Z,6.67
2023-04-20T00:29:46.355Z,6.00
2023-04-20T00:32:12.932Z,8.03
2023-04-20T00:34:40.347Z,7.30
2023-04-20T00:37:06.951Z,6.67
2023-04-20T00:39:33.455Z,8.43
2023-04-20T00:42:08.981Z,8.67
2023-04-20T00:44:35.802Z,8.13
2023-04-20T00:47:02.303Z,8.60
2023-04-20T00:49:30.284Z,8.80
2023-04-20T00:51:58.377Z,7.37
2023-04-20T00:54:26.396Z,8.87
2023-04-20T00:56:53.941Z,8.07
2023-04-20T00:59:21.596Z,9.47
2023-04-20T01:01:48.251Z,8.10
2023-04-20T01:04:15.362Z,8.70
2023-04-20T01:06:41.898Z,8.87
2023-04-20T01:09:08.394Z,8.93
2023-04-20T01:11:35.781Z,8.70
2023-04-20T01:14:02.383Z,9.27
2023-04-20T01:16:32.137Z,8.13
2023-04-20T01:18:58.660Z,8.27
2023-04-20T01:21:25.550Z,10.10
2023-04-20T01:23:52.126Z,8.90
2023-04-20T01:26:20.373Z,7.37
2023-04-20T01:28:49.896Z,7.97
2023-04-20T01:31:17.102Z,8.53
2023-04-20T01:33:43.641Z,7.93
2023-04-20T01:36:10.197Z,8.13
2023-04-20T01:38:37.338Z,7.90
2023-04-20T01:41:05.636Z,7.10
2023-04-20T01:43:32.942Z,8.40
2023-04-20T01:45:59.971Z,8.70
2023-04-20T01:48:26.854Z,9.37
2023-04-20T01:50:53.539Z,9.10
2023-04-20T01:53:20.241Z,8.30
2023-04-20T01:55:47.987Z,8.60
2023-04-20T01:58:14.784Z,10.40
2023-04-20T02:00:41.304Z,8.73
2023-04-20T02:03:07.972Z,8.23
2023-04-20T02:05:34.655Z,7.93
2023-04-20T02:08:01.126Z,8.53
2023-04-20T02:10:27.604Z,8.60
2023-04-20T02:12:54.071Z,9.30
2023-04-20T02:15:20.625Z,8.77
2023-04-20T02:17:47.318Z,9.20
2023-04-20T02:20:14.539Z,8.37
2023-04-20T02:22:41.028Z,9.50
2023-04-20T02:25:08.838Z,8.27
2023-04-20T02:27:36.785Z,9.30
2023-04-20T02:30:05.832Z,9.00
2023-04-20T02:32:33.098Z,8.70
2023-04-20T02:34:59.664Z,8.97
2023-04-20T02:37:27.232Z,8.20
2023-04-20T02:39:53.692Z,7.43
2023-04-20T02:42:20.131Z,6.33
2023-04-20T02:44:48.099Z,5.90
2023-04-20T02:47:15.328Z,6.33
2023-04-20T02:49:41.928Z,5.87
2023-04-20T02:52:08.643Z,5.80
2023-04-20T02:54:35.150Z,6.50
2023-04-20T02:57:03.363Z,5.37
2023-04-20T02:59:29.887Z,5.90
2023-04-20T03:02:04.841Z,4.90
2023-04-20T03:04:32.071Z,4.53
2023-04-20T03:07:05.686Z,5.07
2023-04-20T03:09:34.561Z,5.37
2023-04-20T03:12:04.714Z,5.20
2023-04-20T03:14:49.752Z,5.33
2023-04-20T03:17:19.395Z,5.90
2023-04-20T03:19:46.443Z,4.33
2023-04-20T03:22:12.891Z,4.57
2023-04-20T03:24:39.425Z,5.70
2023-04-20T03:27:16.676Z,5.70
2023-04-20T03:30:00.881Z,6.83
2023-04-20T03:32:28.077Z,6.20
2023-04-20T03:34:54.525Z,5.97
2023-04-20T03:37:21.068Z,5.97
2023-04-20T03:39:47.526Z,5.20
2023-04-20T03:42:14.040Z,5.53
2023-04-20T03:44:41.276Z,5.97
2023-04-20T03:47:09.351Z,6.97
2023-04-20T03:49:36.259Z,6.13
2023-04-20T03:52:02.721Z,6.07
2023-04-20T03:54:29.288Z,6.20
2023-04-20T03:56:55.878Z,6.17
2023-04-20T03:59:23.331Z,5.50
2023-04-20T04:01:50.136Z,6.80
2023-04-20T04:04:17.838Z,7.07
2023-04-20T04:06:44.616Z,6.27
2023-04-20T04:09:11.390Z,4.70
2023-04-20T04:11:37.836Z,6.80
2023-04-20T04:14:05.165Z,6.43
2023-04-20T04:16:32.630Z,6.63
2023-04-20T04:18:59.180Z,5.80
2023-04-20T04:21:26.099Z,7.37
2023-04-20T04:23:58.473Z,6.40
2023-04-20T04:26:38.444Z,7.17
2023-04-20T04:29:05.080Z,7.70
2023-04-20T04:31:32.913Z,7.70
2023-04-20T04:34:04.799Z,7.50
2023-04-20T04:36:39.906Z,6.90
2023-04-20T04:39:09.436Z,7.50
2023-04-20T04:41:37.449Z,8.03
2023-04-20T04:44:16.818Z,7.60
2023-04-20T04:46:47.337Z,8.00
2023-04-20T04:49:14.134Z,7.00
2023-04-20T04:51:40.846Z,6.70
2023-04-20T04:54:07.473Z,7.10
2023-04-20T04:56:33.926Z,7.80
2023-04-20T04:59:00.377Z,7.10
2023-04-20T05:01:26.957Z,7.83
2023-04-20T05:03:53.610Z,6.80
2023-04-20T05:06:20.448Z,7.47
2023-04-20T05:08:46.917Z,8.90
2023-04-20T05:11:13.379Z,7.60
2023-04-20T05:13:39.831Z,6.93
2023-04-20T05:16:06.427Z,8.37
2023-04-20T05:18:32.902Z,7.73
2023-04-20T05:20:59.578Z,8.20
2023-04-20T05:23:26.007Z,7.43
2023-04-20T05:25:52.468Z,7.33
2023-04-20T05:28:19.507Z,7.80
2023-04-20T05:30:45.977Z,8.03
2023-04-20T05:33:12.451Z,7.40
2023-04-20T05:35:41.012Z,8.80
2023-04-20T05:38:07.520Z,7.40
2023-04-20T05:40:37.244Z,8.20
2023-04-20T05:43:03.733Z,8.40
2023-04-20T05:45:30.243Z,8.37
2023-04-20T05:47:57.121Z,8.23
2023-04-20T05:50:24.571Z,7.40
2023-04-20T05:52:51.983Z,7.37
2023-04-20T05:55:20.635Z,7.67
2023-04-20T05:57:48.669Z,8.30
2023-04-20T06:00:15.947Z,6.97
2023-04-20T06:02:43.242Z,9.13
2023-04-20T06:05:11.318Z,7.27
2023-04-20T06:07:38.378Z,7.20
2023-04-20T06:10:05.766Z,8.23
2023-04-20T06:12:32.357Z,8.17
2023-04-20T06:14:59.241Z,7.77
2023-04-20T06:17:26.030Z,8.00
2023-04-20T06:19:52.671Z,8.40
2023-04-20T06:22:19.532Z,7.30
2023-04-20T06:24:46.623Z,6.37
2023-04-20T06:27:13.291Z,9.03
2023-04-20T06:29:39.724Z,7.83
2023-04-20T06:32:06.293Z,8.17
2023-04-20T06:34:32.748Z,7.90
2023-04-20T06:36:59.219Z,7.07
2023-04-20T06:39:26.467Z,7.50
2023-04-20T06:41:52.891Z,7.00
2023-04-20T06:44:21.417Z,8.10
2023-04-20T06:46:47.985Z,7.07
2023-04-20T06:49:17.140Z,8.47
2023-04-20T06:51:43.772Z,8.00
2023-04-20T06:54:10.488Z,8.40
2023-04-20T06:56:37.024Z,8.73
2023-04-20T06:59:03.510Z,7.20
2023-04-20T07:01:30.083Z,7.17
2023-04-20T07:03:56.687Z,7.83
2023-04-20T07:06:25.167Z,10.70
2023-04-20T07:08:51.646Z,7.47
2023-04-20T07:11:18.072Z,6.63
2023-04-20T07:13:44.688Z,6.70
2023-04-20T07:16:11.249Z,7.87
2023-04-20T07:18:37.719Z,7.53
2023-04-20T07:21:04.189Z,7.10
2023-04-20T07:23:30.676Z,7.80
2023-04-20T07:25:57.148Z,6.67
2023-04-20T07:28:23.653Z,8.90
2023-04-20T07:30:50.228Z,7.50
2023-04-20T07:33:16.675Z,7.40
2023-04-20T07:35:43.185Z,6.57
2023-04-20T07:38:10.270Z,7.03
2023-04-20T07:40:36.746Z,5.80
2023-04-20T07:43:03.284Z,5.33
2023-04-20T07:45:30.022Z,4.87
2023-04-20T07:47:57.359Z,4.70
2023-04-20T07:50:24.011Z,4.93
2023-04-20T07:52:50.631Z,5.20
2023-04-20T07:55:17.412Z,4.83
2023-04-20T07:57:43.925Z,4.03
2023-04-20T08:00:12.657Z,4.10
2023-04-20T08:02:45.273Z,4.40
2023-04-20T08:05:12.001Z,3.30
2023-04-20T08:07:38.778Z,2.90
2023-04-20T08:10:06.974Z,4.00
2023-04-20T08:12:33.425Z,3.20
2023-04-20T08:15:04.345Z,3.40
2023-04-20T08:17:30.990Z,3.43
2023-04-20T08:19:57.458Z,3.07
2023-04-20T08:22:29.870Z,2.90
2023-04-20T08:24:59.363Z,2.70
2023-04-20T08:27:26.391Z,2.50
2023-04-20T08:29:52.844Z,2.57
2023-04-20T08:32:22.712Z,2.37
2023-04-20T08:34:50.124Z,2.57
2023-04-20T08:37:16.568Z,2.13
2023-04-20T08:39:43.023Z,2.50
2023-04-20T08:42:09.534Z,2.60
2023-04-20T08:44:35.967Z,2.43
2023-04-20T08:47:03.053Z,2.63
2023-04-20T08:49:32.983Z,2.90
2023-04-20T08:51:59.596Z,2.40
2023-04-20T08:54:26.056Z,2.93
2023-04-20T08:56:52.677Z,2.60
2023-04-20T08:59:19.115Z,2.47
2023-04-20T09:01:46.257Z,2.77
2023-04-20T09:04:21.811Z,2.50
2023-04-20T09:06:50.668Z,2.40
2023-04-20T09:09:18.391Z,2.67
2023-04-20T09:11:45.247Z,3.20
2023-04-20T09:14:14.157Z,3.13
2023-04-20T09:17:01.736Z,2.77
2023-04-20T09:19:29.572Z,2.40
2023-04-20T09:22:03.731Z,3.23
2023-04-20T09:24:32.604Z,3.40
2023-04-20T09:27:00.178Z,2.83
2023-04-20T09:29:26.835Z,3.10
2023-04-20T09:31:54.330Z,2.93
2023-04-20T09:34:21.722Z,2.57
2023-04-20T09:36:54.320Z,3.10
2023-04-20T09:39:23.119Z,3.10
2023-04-20T09:41:51.112Z,3.60
2023-04-20T09:44:18.560Z,2.70
2023-04-20T09:46:46.477Z,3.07
2023-04-20T09:49:14.681Z,3.10
2023-04-20T09:51:45.118Z,3.60
2023-04-20T09:54:12.790Z,3.57
2023-04-20T09:56:40.017Z,3.40
2023-04-20T09:59:07.087Z,2.93
2023-04-20T10:01:36.488Z,3.20
2023-04-20T10:04:06.255Z,3.50
2023-04-20T10:06:34.464Z,3.37
2023-04-20T10:09:02.574Z,2.90
2023-04-20T10:11:44.610Z,2.90
2023-04-20T10:14:20.183Z,2.70
2023-04-20T10:16:59.095Z,3.40
2023-04-20T10:19:45.990Z,3.23
2023-04-20T10:22:14.393Z,3.37
2023-04-20T10:24:42.081Z,3.27
2023-04-20T10:27:19.505Z,3.03
2023-04-20T10:29:46.182Z,3.33
2023-04-20T10:32:28.914Z,3.00
2023-04-20T10:35:03.002Z,3.40
2023-04-20T10:37:29.635Z,3.47
2023-04-20T10:39:56.312Z,3.17
2023-04-20T10:42:22.884Z,3.13
2023-04-20T10:44:49.905Z,3.00
2023-04-20T10:47:17.811Z,2.90
2023-04-20T10:49:45.051Z,3.50
2023-04-20T10:52:11.524Z,2.80
2023-04-20T10:54:39.171Z,2.60
2023-04-20T10:57:06.747Z,3.00
2023-04-20T10:59:35.033Z,3.03
2023-04-20T11:02:01.739Z,2.90
2023-04-20T11:04:32.297Z,3.10
2023-04-20T11:07:07.195Z,2.83
2023-04-20T11:09:34.561Z,3.30
2023-04-20T11:12:02.494Z,4.10
2023-04-20T11:14:29.379Z,3.33
2023-04-20T11:16:55.967Z,4.20
2023-04-20T11:19:24.375Z,3.13
2023-04-20T11:21:50.891Z,3.97
2023-04-20T11:24:21.309Z,3.80
2023-04-20T11:26:50.274Z,3.97
2023-04-20T11:29:36.334Z,4.10
2023-04-20T11:32:07.828Z,3.90
2023-04-20T11:34:36.175Z,4.70
2023-04-20T11:37:07.270Z,4.20
2023-04-20T11:39:34.133Z,3.80
2023-04-20T11:42:02.099Z,4.37
2023-04-20T11:44:28.726Z,5.10
2023-04-20T11:46:57.177Z,4.80
2023-04-20T11:49:24.950Z,5.33
2023-04-20T11:51:51.492Z,5.40
2023-04-20T11:54:19.200Z,4.83
2023-04-20T11:56:46.085Z,6.40
2023-04-20T11:59:14.040Z,5.10
2023-04-20T12:01:40.809Z,5.40
2023-04-20T12:04:07.643Z,5.00
2023-04-20T12:06:34.652Z,5.30
2023-04-20T12:09:01.355Z,4.17
2023-04-20T12:11:28.019Z,4.23
2023-04-20T12:13:54.600Z,4.30
2023-04-20T12:16:21.695Z,4.47
2023-04-20T12:18:48.540Z,4.70
2023-04-20T12:21:15.223Z,5.30
2023-04-20T12:23:42.659Z,4.60
2023-04-20T12:26:09.370Z,4.40
2023-04-20T12:28:36.004Z,3.83
2023-04-20T12:31:02.494Z,5.00
2023-04-20T12:33:29.660Z,4.20
2023-04-20T12:35:56.148Z,3.50
2023-04-20T12:38:22.661Z,4.50
2023-04-20T12:40:49.077Z,4.60
2023-04-20T12:43:16.001Z,3.80
2023-04-20T12:45:42.508Z,4.90
2023-04-20T12:48:09.138Z,4.33
2023-04-20T12:50:36.011Z,4.10
2023-04-20T12:53:02.594Z,4.20
2023-04-20T12:55:29.261Z,5.13
2023-04-20T12:57:55.674Z,4.27
2023-04-20T13:00:22.234Z,4.20
2023-04-20T13:02:50.049Z,3.80
2023-04-20T13:05:17.238Z,4.90
2023-04-20T13:07:43.704Z,4.10
2023-04-20T13:10:10.677Z,5.03
2023-04-20T13:12:37.102Z,4.23
2023-04-20T13:15:03.840Z,4.30
2023-04-20T13:17:30.429Z,4.60
2023-04-20T13:19:56.877Z,4.30
2023-04-20T13:22:23.348Z,4.67
2023-04-20T13:24:49.782Z,4.47
2023-04-20T13:27:16.301Z,2.83
2023-04-20T13:29:42.841Z,3.70
2023-04-20T13:32:10.292Z,2.63
2023-04-20T13:34:37.003Z,2.80
2023-04-20T13:37:04.034Z,2.70
2023-04-20T13:39:30.697Z,2.53
2023-04-20T13:41:57.258Z,2.43
2023-04-20T13:44:24.163Z,2.17
2023-04-20T13:46:50.892Z,2.03
2023-04-20T13:49:17.680Z,1.70
2023-04-20T13:51:44.097Z,2.10
2023-04-20T13:54:10.720Z,2.27
2023-04-20T13:56:37.571Z,2.07
2023-04-20T13:59:04.379Z,2.00
2023-04-20T14:01:31.422Z,2.80
2023-04-20T14:03:58.690Z,2.67
2023-04-20T14:06:25.499Z,2.70
2023-04-20T14:08:52.188Z,2.20
2023-04-20T14:11:19.133Z,2.33
2023-04-20T14:13:46.019Z,2.00
2023-04-20T14:16:14.417Z,2.40
2023-04-20T14:18:41.109Z,1.87
2023-04-20T14:21:08.054Z,2.20
2023-04-20T14:23:34.555Z,2.27
2023-04-20T14:26:03.580Z,2.10
2023-04-20T14:28:32.928Z,2.17
2023-04-20T14:31:04.291Z,1.90
2023-04-20T14:33:32.230Z,1.70
2023-04-20T14:35:58.796Z,2.20
2023-04-20T14:38:25.856Z,2.27
2023-04-20T14:40:52.471Z,1.67
2023-04-20T14:43:18.912Z,2.27
2023-04-20T14:45:45.961Z,2.00
2023-04-20T14:48:12.989Z,2.10
2023-04-20T14:50:39.535Z,2.50
2023-04-20T14:53:05.987Z,1.90
2023-04-20T14:55:32.689Z,2.40
2023-04-20T14:57:59.191Z,2.20
2023-04-20T15:00:28.020Z,2.07
2023-04-20T15:02:56.768Z,2.67
2023-04-20T15:05:25.257Z,2.30
2023-04-20T15:07:51.901Z,2.37
2023-04-20T15:10:19.866Z,2.40
2023-04-20T15:12:47.496Z,2.33
2023-04-20T15:15:14.039Z,2.43
2023-04-20T15:17:40.548Z,2.20
2023-04-20T15:20:08.550Z,1.93
2023-04-20T15:22:35.530Z,1.80
2023-04-20T15:25:02.636Z,1.90
2023-04-20T15:27:29.414Z,2.50
2023-04-20T15:29:58.199Z,2.50
2023-04-20T15:32:25.668Z,3.00
2023-04-20T15:34:52.289Z,3.07
2023-04-20T15:37:18.806Z,3.50
2023-04-20T15:39:45.549Z,2.93
2023-04-20T15:42:13.543Z,3.23
2023-04-20T15:44:42.828Z,3.90
2023-04-20T15:47:09.299Z,3.80
2023-04-20T15:49:40.397Z,4.30
2023-04-20T15:52:10.675Z,4.10
2023-04-20T15:54:37.684Z,3.80
2023-04-20T15:57:04.185Z,3.93
2023-04-20T15:59:30.743Z,5.17
2023-04-20T16:01:57.266Z,3.80
2023-04-20T16:04:24.472Z,4.73
2023-04-20T16:06:51.382Z,4.50
2023-04-20T16:09:17.853Z,4.30
2023-04-20T16:11:44.320Z,4.60
2023-04-20T16:14:10.826Z,4.67
2023-04-20T16:16:37.283Z,5.17
2023-04-20T16:19:03.787Z,4.93
2023-04-20T16:21:30.204Z,4.40
2023-04-20T16:23:56.933Z,4.50
2023-04-20T16:26:25.547Z,5.10
2023-04-20T16:28:52.784Z,5.20
2023-04-20T16:31:19.508Z,4.23
2023-04-20T16:33:46.519Z,4.70
2023-04-20T16:36:12.995Z,4.50
2023-04-20T16:38:39.509Z,4.50
2023-04-20T16:41:06.016Z,4.50
2023-04-20T16:43:32.460Z,4.83
2023-04-20T16:45:58.958Z,4.23
2023-04-20T16:48:25.584Z,4.30
2023-04-20T16:50:52.133Z,4.70
2023-04-20T16:53:18.686Z,4.27
2023-04-20T16:55:45.209Z,4.03
2023-04-20T16:58:11.670Z,4.60
2023-04-20T17:00:38.138Z,4.10
2023-04-20T17:03:10.414Z,5.00
2023-04-20T17:05:41.490Z,4.30
2023-04-20T17:08:08.542Z,4.43
2023-04-20T17:10:37.216Z,4.67
2023-04-20T17:13:04.140Z,4.40
2023-04-20T17:15:31.213Z,4.80
2023-04-20T17:17:58.070Z,4.77
2023-04-20T17:20:24.771Z,4.60
2023-04-20T17:22:51.302Z,4.40
2023-04-20T17:25:17.844Z,5.20
2023-04-20T17:27:44.280Z,5.77
2023-04-20T17:30:11.364Z,5.47
2023-04-20T17:32:37.829Z,5.87
2023-04-20T17:35:04.558Z,4.90
2023-04-20T17:37:31.070Z,5.40
2023-04-20T17:39:57.623Z,5.33
2023-04-20T17:42:24.092Z,4.77
2023-04-20T17:44:51.328Z,4.43
2023-04-20T17:47:17.772Z,5.20
2023-04-20T17:49:44.276Z,4.70
2023-04-20T17:52:14.829Z,6.10
2023-04-20T17:54:41.264Z,4.97
2023-04-20T17:57:08.939Z,5.00
2023-04-20T17:59:35.756Z,4.70
2023-04-20T18:02:02.800Z,5.13
2023-04-20T18:04:29.485Z,5.23
2023-04-20T18:06:56.084Z,3.97
2023-04-20T18:09:22.611Z,4.70
2023-04-20T18:11:49.033Z,5.23
2023-04-20T18:14:15.673Z,3.97
2023-04-20T18:16:42.220Z,4.33
2023-04-20T18:19:08.680Z,4.93
2023-04-20T18:21:35.523Z,4.90
2023-04-20T18:24:02.819Z,5.43
2023-04-20T18:26:29.278Z,4.57
2023-04-20T18:28:55.796Z,5.27
2023-04-20T18:31:22.304Z,4.57
2023-04-20T18:33:48.808Z,4.93
2023-04-20T18:36:16.220Z,5.10
2023-04-20T18:38:42.800Z,5.03
2023-04-20T18:41:09.465Z,5.10
2023-04-20T18:43:36.022Z,5.30
2023-04-20T18:46:02.572Z,5.33
2023-04-20T18:48:29.008Z,4.63
2023-04-20T18:50:55.600Z,5.30
2023-04-20T18:53:22.419Z,4.90
2023-04-20T18:55:48.874Z,5.40
2023-04-20T18:58:15.350Z,5.77
2023-04-20T19:00:41.837Z,5.90
2023-04-20T19:03:08.486Z,5.00
2023-04-20T19:05:35.013Z,5.47
2023-04-20T19:08:01.584Z,6.80
2023-04-20T19:10:28.172Z,5.23
2023-04-20T19:12:55.800Z,5.37
2023-04-20T19:15:25.520Z,6.27
2023-04-20T19:17:54.502Z,6.23
2023-04-20T19:20:21.506Z,5.80
2023-04-20T19:22:47.938Z,5.33
2023-04-20T19:25:14.688Z,6.10
2023-04-20T19:27:41.260Z,5.80
2023-04-20T19:30:09.005Z,6.47
2023-04-20T19:32:35.682Z,6.37
2023-04-20T19:35:02.694Z,6.43
2023-04-20T19:37:29.393Z,6.40
2023-04-20T19:39:55.849Z,6.40
2023-04-20T19:42:22.833Z,5.60
2023-04-20T19:44:49.308Z,4.87
2023-04-20T19:47:16.041Z,5.70
2023-04-20T19:49:42.475Z,5.93
2023-04-20T19:52:08.923Z,6.10
2023-04-20T19:54:35.366Z,5.83
2023-04-20T19:57:01.871Z,6.27
2023-04-20T19:59:29.950Z,5.87
2023-04-20T20:01:56.477Z,4.97
2023-04-20T20:04:23.374Z,6.37
2023-04-20T20:06:50.728Z,5.63
2023-04-20T20:09:18.171Z,6.00
2023-04-20T20:11:50.037Z,5.50
2023-04-20T20:14:17.428Z,5.60
2023-04-20T20:16:44.116Z,5.77
2023-04-20T20:19:10.804Z,6.00
2023-04-20T20:21:37.390Z,6.40
2023-04-20T20:24:04.093Z,5.63
2023-04-20T20:26:30.580Z,6.20
2023-04-20T20:28:57.050Z,6.13
2023-04-20T20:31:23.535Z,6.13
2023-04-20T20:33:50.164Z,6.27
2023-04-20T20:36:17.657Z,5.80
2023-04-20T20:38:44.242Z,5.43
2023-04-20T20:41:10.934Z,6.10
2023-04-20T20:43:37.495Z,5.60
2023-04-20T20:46:04.045Z,5.23
2023-04-20T20:48:30.574Z,5.30
2023-04-20T20:50:57.008Z,5.80
2023-04-20T20:53:23.627Z,5.80
2023-04-20T20:55:50.077Z,5.30
2023-04-20T20:58:16.622Z,6.30
2023-04-20T21:00:44.036Z,5.63
2023-04-20T21:03:10.819Z,5.70
2023-04-20T21:05:37.359Z,5.60
2023-04-20T21:08:03.953Z,5.10
2023-04-20T21:10:30.736Z,7.10
2023-04-20T21:12:57.269Z,5.03
2023-04-20T21:15:23.919Z,5.50
2023-04-20T21:17:50.893Z,5.53
2023-04-20T21:20:17.340Z,5.30
2023-04-20T21:22:43.850Z,6.33
2023-04-20T21:25:10.482Z,5.20
2023-04-20T21:27:37.193Z,5.40
2023-04-20T21:30:04.616Z,4.80
2023-04-20T21:32:31.193Z,5.37
2023-04-20T21:34:57.601Z,5.87
2023-04-20T21:37:24.005Z,4.40
2023-04-20T21:39:51.136Z,5.13
2023-04-20T21:42:17.555Z,5.73
2023-04-20T21:44:44.003Z,4.50
2023-04-20T21:47:10.627Z,5.30
2023-04-20T21:49:37.095Z,5.67
2023-04-20T21:52:03.559Z,5.00
2023-04-20T21:54:30.647Z,4.90
2023-04-20T21:56:58.392Z,5.40
2023-04-20T21:59:24.855Z,4.30
2023-04-20T22:01:51.444Z,5.33
2023-04-20T22:04:18.133Z,5.10
2023-04-20T22:06:44.832Z,4.83
2023-04-20T22:09:11.651Z,4.83
2023-04-20T22:11:38.089Z,5.50
2023-04-20T22:14:04.532Z,6.07
2023-04-20T22:16:33.773Z,5.10
2023-04-20T22:19:00.993Z,5.07
2023-04-20T22:21:28.236Z,4.60
2023-04-20T22:23:55.095Z,5.00
2023-04-20T22:26:21.530Z,5.67
2023-04-20T22:28:47.934Z,5.83
2023-04-20T22:31:14.450Z,4.60
2023-04-20T22:33:40.913Z,5.30
2023-04-20T22:36:08.003Z,5.27
2023-04-20T22:38:35.640Z,4.77
2023-04-20T22:41:02.074Z,4.40
2023-04-20T22:43:28.521Z,5.37
2023-04-20T22:45:55.064Z,4.90
2023-04-20T22:48:21.628Z,4.57
2023-04-20T22:50:48.089Z,4.70
2023-04-20T22:53:14.507Z,4.77
2023-04-20T22:55:41.223Z,5.30
2023-04-20T22:58:07.867Z,4.43
2023-04-20T23:00:34.485Z,5.40
2023-04-20T23:03:01.281Z,5.67
2023-04-20T23:05:28.972Z,4.70
2023-04-20T23:07:56.296Z,4.80
2023-04-20T23:10:28.459Z,5.07
2023-04-20T23:12:55.522Z,5.00
2023-04-20T23:15:21.978Z,5.23
2023-04-20T23:17:48.555Z,5.10
2023-04-20T23:20:15.055Z,4.63
2023-04-20T23:22:41.541Z,5.00
2023-04-20T23:25:09.524Z,5.40
2023-04-20T23:27:36.003Z,5.00
2023-04-20T23:30:02.437Z,5.37
2023-04-20T23:32:28.902Z,4.53
2023-04-20T23:34:55.383Z,5.30
2023-04-20T23:37:21.898Z,4.80
2023-04-20T23:39:48.372Z,4.03
2023-04-20T23:42:14.823Z,4.90
2023-04-20T23:44:41.263Z,4.80
2023-04-20T23:47:07.757Z,5.23
2023-04-20T23:49:34.240Z,4.90
2023-04-20T23:52:00.713Z,5.20
2023-04-20T23:54:27.230Z,5.40
2023-04-20T23:56:55.402Z,5.20
2023-04-20T23:59:21.867Z,4.80
